createdAt,value
2017-12-04T00:01:22.647Z,9.53
2017-12-04T00:03:50.329Z,9.30
2017-12-04T00:06:17.947Z,9.00
2017-12-04T00:08:45.574Z,9.83
2017-12-04T00:11:13.668Z,8.43
2017-12-04T00:13:41.301Z,8.10
2017-12-04T00:16:08.954Z,7.63
2017-12-04T00:18:37.561Z,8.87
2017-12-04T00:21:05.179Z,8.90
2017-12-04T00:23:32.810Z,8.87
2017-12-04T00:26:00.487Z,8.43
2017-12-04T00:28:28.111Z,8.50
2017-12-04T00:30:55.737Z,8.90
2017-12-04T00:33:23.435Z,9.93
2017-12-04T00:35:51.375Z,8.47
2017-12-04T00:38:18.994Z,9.33
2017-12-04T00:40:46.680Z,9.43
2017-12-04T00:43:14.296Z,8.70
2017-12-04T00:45:41.927Z,9.27
2017-12-04T00:48:09.611Z,9.10
2017-12-04T00:53:20.864Z,11.50
2017-12-04T00:55:48.489Z,9.57
2017-12-04T00:58:16.832Z,9.30
2017-12-04T01:00:44.663Z,9.77
2017-12-04T01:03:12.294Z,9.23
2017-12-04T01:05:39.915Z,9.43
2017-12-04T01:08:07.612Z,10.30
2017-12-04T01:10:35.238Z,9.83
2017-12-04T01:13:02.871Z,10.30
2017-12-04T01:15:30.865Z,9.57
2017-12-04T01:17:58.496Z,9.73
2017-12-04T01:20:26.120Z,9.80
2017-12-04T01:22:53.812Z,9.37
2017-12-04T01:25:21.444Z,9.80
2017-12-04T01:27:49.082Z,10.00
2017-12-04T01:30:17.135Z,9.60
2017-12-04T01:32:44.769Z,10.63
2017-12-04T01:35:12.395Z,9.37
2017-12-04T01:37:40.086Z,9.23
2017-12-04T01:40:07.712Z,10.13
2017-12-04T01:42:35.332Z,10.40
2017-12-04T01:45:03.019Z,10.33
2017-12-04T01:47:30.641Z,10.23
2017-12-04T01:49:58.269Z,9.27
2017-12-04T01:52:25.945Z,10.60
2017-12-04T01:54:53.586Z,9.27
2017-12-04T01:57:21.203Z,10.33
2017-12-04T01:59:49.068Z,10.53
2017-12-04T02:02:16.695Z,11.87
2017-12-04T02:04:46.372Z,10.13
2017-12-04T02:07:13.860Z,10.47
2017-12-04T02:09:41.487Z,10.07
2017-12-04T02:12:09.109Z,9.53
2017-12-04T02:14:36.937Z,10.00
2017-12-04T02:17:04.563Z,9.37
2017-12-04T02:22:11.346Z,12.98
2017-12-04T02:27:18.106Z,11.95
2017-12-04T02:29:45.730Z,11.07
2017-12-04T02:32:13.356Z,9.43
2017-12-04T02:34:41.054Z,10.67
2017-12-04T02:37:08.694Z,10.33
2017-12-04T02:39:36.334Z,10.27
2017-12-04T02:42:04.263Z,10.40
2017-12-04T02:44:31.939Z,9.80
2017-12-04T02:46:59.564Z,10.80
2017-12-04T02:49:27.241Z,10.33
2017-12-04T02:51:54.872Z,10.90
2017-12-04T02:54:22.491Z,9.87
2017-12-04T02:56:50.344Z,9.90
2017-12-04T02:59:17.964Z,9.60
2017-12-04T03:01:45.588Z,10.03
2017-12-04T03:04:13.519Z,10.07
2017-12-04T03:06:41.149Z,8.90
2017-12-04T03:09:08.782Z,9.63
2017-12-04T03:11:36.616Z,10.30
2017-12-04T03:14:04.251Z,11.27
2017-12-04T03:16:31.881Z,10.63
2017-12-04T03:18:59.904Z,11.40
2017-12-04T03:21:27.536Z,11.80
2017-12-04T03:23:55.165Z,10.80
2017-12-04T03:26:24.115Z,10.53
2017-12-04T03:28:51.740Z,10.43
2017-12-04T03:31:19.371Z,10.90
2017-12-04T03:33:47.053Z,10.97
2017-12-04T03:36:14.671Z,9.83
2017-12-04T03:38:42.302Z,10.57
2017-12-04T03:41:10.125Z,10.03
2017-12-04T03:43:37.753Z,9.77
2017-12-04T03:46:05.376Z,9.70
2017-12-04T03:48:33.363Z,10.23
2017-12-04T03:53:40.144Z,12.65
2017-12-04T03:56:07.789Z,10.43
2017-12-04T03:58:35.419Z,10.90
2017-12-04T04:01:03.548Z,10.00
2017-12-04T04:03:31.175Z,9.30
2017-12-04T04:05:58.803Z,9.33
2017-12-04T04:08:26.480Z,10.83
2017-12-04T04:10:54.105Z,9.40
2017-12-04T04:13:21.737Z,9.83
2017-12-04T04:15:49.816Z,10.20
2017-12-04T04:18:17.446Z,10.57
2017-12-04T04:20:45.092Z,10.27
2017-12-04T04:23:12.769Z,11.10
2017-12-04T04:25:40.389Z,12.57
2017-12-04T04:28:08.019Z,12.30
2017-12-04T04:30:37.610Z,12.83
2017-12-04T04:33:03.330Z,12.73
2017-12-04T04:35:30.955Z,11.97
2017-12-04T04:37:58.793Z,12.57
2017-12-04T04:40:26.417Z,12.23
2017-12-04T04:42:54.051Z,12.53
2017-12-04T04:45:21.779Z,11.23
2017-12-04T04:47:49.403Z,12.03
2017-12-04T04:50:17.031Z,11.90
2017-12-04T04:52:45.039Z,10.80
2017-12-04T04:55:12.651Z,11.83
2017-12-04T04:57:40.278Z,12.20
2017-12-04T05:00:07.960Z,11.97
2017-12-04T05:02:35.583Z,11.87
2017-12-04T05:05:03.212Z,12.33
2017-12-04T05:07:31.310Z,12.67
2017-12-04T05:09:58.924Z,11.63
2017-12-04T05:12:26.552Z,10.40
2017-12-04T05:14:54.241Z,11.17
2017-12-04T05:17:21.863Z,13.40
2017-12-04T05:22:28.784Z,15.95
2017-12-04T05:24:56.445Z,13.43
2017-12-04T05:27:24.047Z,11.93
2017-12-04T05:29:51.726Z,13.13
2017-12-04T05:32:19.355Z,13.30
2017-12-04T05:34:46.983Z,11.20
2017-12-04T05:37:14.900Z,10.43
2017-12-04T05:39:42.525Z,10.40
2017-12-04T05:42:10.148Z,10.50
2017-12-04T05:44:37.827Z,14.67
2017-12-04T05:47:05.454Z,14.20
2017-12-04T05:49:33.089Z,13.50
2017-12-04T05:52:00.925Z,14.13
2017-12-04T05:54:28.550Z,13.90
2017-12-04T05:56:56.178Z,13.20
2017-12-04T05:59:23.857Z,14.87
2017-12-04T06:01:52.310Z,14.70
2017-12-04T06:04:19.943Z,13.87
2017-12-04T06:06:47.764Z,14.43
2017-12-04T06:09:15.417Z,15.70
2017-12-04T06:11:43.445Z,13.30
2017-12-04T06:14:11.124Z,13.63
2017-12-04T06:16:39.118Z,14.70
2017-12-04T06:19:06.775Z,13.33
2017-12-04T06:21:34.563Z,13.57
2017-12-04T06:24:02.188Z,13.90
2017-12-04T06:26:29.816Z,14.13
2017-12-04T06:28:57.500Z,14.23
2017-12-04T06:31:25.132Z,13.93
2017-12-04T06:33:52.782Z,14.40
2017-12-04T06:36:20.438Z,14.30
2017-12-04T06:38:48.083Z,14.80
2017-12-04T06:41:15.691Z,17.07
2017-12-04T06:43:43.368Z,16.60
2017-12-04T06:48:50.467Z,19.05
2017-12-04T06:51:18.100Z,16.57
2017-12-04T06:53:45.729Z,14.27
2017-12-04T06:56:13.419Z,13.53
2017-12-04T06:58:41.036Z,14.07
2017-12-04T07:01:08.667Z,14.97
2017-12-04T07:03:36.355Z,14.43
2017-12-04T07:06:03.988Z,16.13
2017-12-04T07:08:31.617Z,14.87
2017-12-04T07:10:59.291Z,15.37
2017-12-04T07:13:26.924Z,15.73
2017-12-04T07:15:54.559Z,18.03
2017-12-04T07:18:23.257Z,16.13
2017-12-04T07:20:50.815Z,16.43
2017-12-04T07:23:18.445Z,17.07
2017-12-04T07:25:46.258Z,15.70
2017-12-04T07:28:14.726Z,15.07
2017-12-04T07:30:42.350Z,16.17
2017-12-04T07:33:10.028Z,15.53
2017-12-04T07:35:37.660Z,19.37
2017-12-04T07:38:05.362Z,22.47
2017-12-04T07:40:32.968Z,22.17
2017-12-04T07:43:00.603Z,24.20
2017-12-04T07:45:28.237Z,23.03
2017-12-04T07:47:56.165Z,27.50
2017-12-04T07:50:23.794Z,24.47
2017-12-04T07:52:51.423Z,22.30
2017-12-04T07:55:19.108Z,21.30
2017-12-04T07:57:46.728Z,21.47
2017-12-04T08:00:14.375Z,19.97
2017-12-04T08:02:42.437Z,23.50
2017-12-04T08:07:49.208Z,31.75
2017-12-04T08:10:16.832Z,21.77
2017-12-04T08:12:44.462Z,24.63
2017-12-04T08:15:12.312Z,24.43
2017-12-04T08:17:39.946Z,21.50
2017-12-04T08:20:07.559Z,22.50
2017-12-04T08:22:35.235Z,26.03
2017-12-04T08:25:03.658Z,25.17
2017-12-04T08:27:31.306Z,23.97
2017-12-04T08:29:59.195Z,22.13
2017-12-04T08:32:26.819Z,21.13
2017-12-04T08:34:54.452Z,23.23
2017-12-04T08:37:22.119Z,21.77
2017-12-04T08:39:49.743Z,19.47
2017-12-04T08:42:17.375Z,22.13
2017-12-04T08:44:45.073Z,22.50
2017-12-04T08:47:12.731Z,22.43
2017-12-04T08:49:41.157Z,21.33
2017-12-04T08:52:09.059Z,19.93
2017-12-04T08:54:36.986Z,19.47
2017-12-04T08:57:05.556Z,19.73
2017-12-04T08:59:33.244Z,20.93
2017-12-04T09:02:03.950Z,21.27
2017-12-04T09:04:39.654Z,21.63
2017-12-04T09:06:59.628Z,20.73
2017-12-04T09:09:27.259Z,20.40
2017-12-04T09:11:54.878Z,18.50
2017-12-04T09:14:22.555Z,17.07
2017-12-04T09:19:29.509Z,20.88
2017-12-04T09:21:57.131Z,18.90
2017-12-04T09:27:08.492Z,25.90
2017-12-04T09:29:36.091Z,21.07
2017-12-04T09:32:03.719Z,19.77
2017-12-04T09:34:31.752Z,17.63
2017-12-04T09:36:59.378Z,17.97
2017-12-04T09:39:27.942Z,18.30
2017-12-04T09:41:55.625Z,17.17
2017-12-04T09:44:23.255Z,16.83
2017-12-04T09:46:50.873Z,16.83
2017-12-04T09:49:18.708Z,15.83
2017-12-04T09:51:46.337Z,15.93
2017-12-04T09:54:13.952Z,16.13
2017-12-04T09:56:41.922Z,15.90
2017-12-04T09:59:10.375Z,14.57
2017-12-04T10:01:38.001Z,14.93
2017-12-04T10:04:05.691Z,15.77
2017-12-04T10:06:33.306Z,14.77
2017-12-04T10:09:01.650Z,15.37
2017-12-04T10:11:29.733Z,14.97
2017-12-04T10:13:57.357Z,15.97
2017-12-04T10:16:24.983Z,14.17
2017-12-04T10:18:52.674Z,15.23
2017-12-04T10:21:20.300Z,13.77
2017-12-04T10:23:47.915Z,11.53
2017-12-04T10:26:15.756Z,11.10
2017-12-04T10:28:43.378Z,11.27
2017-12-04T10:31:11.002Z,15.10
2017-12-04T10:33:38.832Z,12.90
2017-12-04T10:36:07.312Z,11.90
2017-12-04T10:38:34.945Z,11.20
2017-12-04T10:41:02.629Z,15.60
2017-12-04T10:43:30.259Z,14.93
2017-12-04T10:45:57.882Z,16.20
2017-12-04T10:48:25.712Z,14.50
2017-12-04T10:53:32.495Z,17.02
2017-12-04T10:56:00.933Z,16.50
2017-12-04T10:58:28.567Z,13.10
2017-12-04T11:00:57.275Z,11.33
2017-12-04T11:03:24.910Z,12.90
2017-12-04T11:05:52.544Z,12.17
2017-12-04T11:08:20.228Z,12.57
2017-12-04T11:10:48.798Z,12.70
2017-12-04T11:13:16.429Z,11.80
2017-12-04T11:15:44.472Z,12.77
2017-12-04T11:18:12.095Z,11.90
2017-12-04T11:20:39.715Z,9.73
2017-12-04T11:23:07.387Z,9.83
2017-12-04T11:28:15.878Z,14.40
2017-12-04T11:30:43.494Z,11.90
2017-12-04T11:33:11.126Z,10.13
2017-12-04T11:35:39.591Z,12.77
2017-12-04T11:38:07.214Z,15.20
2017-12-04T11:40:34.837Z,14.77
2017-12-04T11:43:02.521Z,14.30
2017-12-04T11:45:30.140Z,13.03
2017-12-04T11:47:57.762Z,17.77
2017-12-04T11:50:25.662Z,16.30
2017-12-04T11:52:53.300Z,16.03
2017-12-04T11:55:20.929Z,14.13
2017-12-04T11:57:48.638Z,15.47
2017-12-04T12:00:16.260Z,15.60
2017-12-04T12:02:43.990Z,14.87
2017-12-04T12:05:11.824Z,16.00
2017-12-04T12:07:39.440Z,16.43
2017-12-04T12:10:07.065Z,19.20
2017-12-04T12:12:34.891Z,16.83
2017-12-04T12:15:03.467Z,16.90
2017-12-04T12:17:31.105Z,14.17
2017-12-04T12:19:58.793Z,14.27
2017-12-04T12:22:26.416Z,14.20
2017-12-04T12:24:54.036Z,14.03
2017-12-04T12:27:21.876Z,12.70
2017-12-04T12:29:49.512Z,13.90
2017-12-04T12:32:17.131Z,12.77
2017-12-04T12:34:44.808Z,12.30
2017-12-04T12:37:12.432Z,11.67
2017-12-04T12:39:40.060Z,10.40
2017-12-04T12:42:07.879Z,8.83
2017-12-04T12:44:36.280Z,7.83
2017-12-04T12:47:03.899Z,8.73
2017-12-04T12:49:31.575Z,8.47
2017-12-04T12:51:59.198Z,9.07
2017-12-04T12:57:05.993Z,10.73
2017-12-04T12:59:34.544Z,9.83
2017-12-04T13:02:02.174Z,10.17
2017-12-04T13:04:30.004Z,9.67
2017-12-04T13:06:57.628Z,10.40
2017-12-04T13:09:25.262Z,11.67
2017-12-04T13:11:53.122Z,10.80
2017-12-04T13:14:20.741Z,11.83
2017-12-04T13:16:48.363Z,11.50
2017-12-04T13:19:16.042Z,13.07
2017-12-04T13:21:45.515Z,11.90
2017-12-04T13:24:13.139Z,11.07
2017-12-04T13:26:40.811Z,11.37
2017-12-04T13:29:08.443Z,8.63
2017-12-04T13:34:24.643Z,12.57
2017-12-04T13:36:52.276Z,10.17
2017-12-04T13:39:19.902Z,9.20
2017-12-04T13:41:47.571Z,9.50
2017-12-04T13:44:15.191Z,10.07
2017-12-04T13:46:42.814Z,10.43
2017-12-04T13:49:10.638Z,9.10
2017-12-04T13:51:38.261Z,8.23
2017-12-04T13:54:06.704Z,11.03
2017-12-04T13:56:34.375Z,9.60
2017-12-04T13:59:02.002Z,9.43
2017-12-04T14:01:29.630Z,9.13
2017-12-04T14:03:57.295Z,9.27
2017-12-04T14:06:24.915Z,9.00
2017-12-04T14:08:52.546Z,10.73
2017-12-04T14:11:20.486Z,10.20
2017-12-04T14:13:48.133Z,9.17
2017-12-04T14:16:15.727Z,9.70
2017-12-04T14:18:43.413Z,11.67
2017-12-04T14:21:11.041Z,11.10
2017-12-04T14:23:38.660Z,11.90
2017-12-04T14:26:06.496Z,10.53
2017-12-04T14:28:34.128Z,10.77
2017-12-04T14:31:01.756Z,11.47
2017-12-04T14:33:29.747Z,11.30
2017-12-04T14:35:57.374Z,11.27
2017-12-04T14:38:25.005Z,11.50
2017-12-04T14:40:52.832Z,13.03
2017-12-04T14:43:20.451Z,13.40
2017-12-04T14:45:48.091Z,12.30
2017-12-04T14:48:15.767Z,13.67
2017-12-04T14:53:24.756Z,16.65
2017-12-04T14:55:52.378Z,12.90
2017-12-04T14:58:19.997Z,12.40
2017-12-04T15:00:52.271Z,12.70
2017-12-04T15:05:58.674Z,16.83
2017-12-04T15:08:29.247Z,13.73
2017-12-04T15:10:56.883Z,13.23
2017-12-04T15:13:24.712Z,14.40
2017-12-04T15:15:52.335Z,13.30
2017-12-04T15:18:19.961Z,15.30
2017-12-04T15:20:47.640Z,14.87
2017-12-04T15:23:15.265Z,14.73
2017-12-04T15:25:42.887Z,16.57
2017-12-04T15:28:11.424Z,17.83
2017-12-04T15:30:39.052Z,15.50
2017-12-04T15:33:06.675Z,16.70
2017-12-04T15:35:34.379Z,16.47
2017-12-04T15:38:02.002Z,17.90
2017-12-04T15:40:29.622Z,18.13
2017-12-04T15:42:57.444Z,17.07
2017-12-04T15:45:25.372Z,17.80
2017-12-04T15:47:52.967Z,17.87
2017-12-04T15:50:20.649Z,18.43
2017-12-04T15:52:48.272Z,16.80
2017-12-04T15:55:15.896Z,15.87
2017-12-04T15:57:43.781Z,15.57
2017-12-04T16:00:11.413Z,17.10
2017-12-04T16:02:39.087Z,13.87
2017-12-04T16:05:06.914Z,16.10
2017-12-04T16:07:34.534Z,15.73
2017-12-04T16:10:02.169Z,14.10
2017-12-04T16:12:30.409Z,15.47
2017-12-04T16:14:57.918Z,15.43
2017-12-04T16:17:25.851Z,34.20
2017-12-04T16:19:53.655Z,27.13
2017-12-04T16:22:21.279Z,16.77
2017-12-04T16:24:49.722Z,16.67
2017-12-04T16:27:17.412Z,22.53
2017-12-04T16:29:45.031Z,18.30
2017-12-04T16:34:51.811Z,21.67
2017-12-04T16:37:19.428Z,17.93
2017-12-04T16:39:47.047Z,15.53
2017-12-04T16:42:18.883Z,14.70
2017-12-04T16:44:46.511Z,13.57
2017-12-04T16:47:14.137Z,14.60
2017-12-04T16:49:42.168Z,17.97
2017-12-04T16:52:09.796Z,19.63
2017-12-04T16:54:37.417Z,20.73
2017-12-04T16:57:05.102Z,19.43
2017-12-04T16:59:32.735Z,18.70
2017-12-04T17:02:00.380Z,18.63
2017-12-04T17:04:28.279Z,18.40
2017-12-04T17:06:55.905Z,18.33
2017-12-04T17:09:23.536Z,16.33
2017-12-04T17:11:51.421Z,19.00
2017-12-04T17:14:19.044Z,18.60
2017-12-04T17:16:47.022Z,18.00
2017-12-04T17:19:14.707Z,19.33
2017-12-04T17:21:42.341Z,19.33
2017-12-04T17:24:10.777Z,19.70
2017-12-04T17:26:39.848Z,22.80
2017-12-04T17:29:07.471Z,29.10
2017-12-04T17:31:35.092Z,26.77
2017-12-04T17:34:03.432Z,23.87
2017-12-04T17:36:31.060Z,23.43
2017-12-04T17:38:58.688Z,23.70
2017-12-04T17:41:26.408Z,27.03
2017-12-04T17:43:54.028Z,24.27
2017-12-04T17:46:21.692Z,22.67
2017-12-04T17:48:49.359Z,21.10
2017-12-04T17:51:16.991Z,20.23
2017-12-04T17:56:24.062Z,32.90
2017-12-04T17:58:51.687Z,22.53
2017-12-04T18:01:19.328Z,21.57
2017-12-04T18:03:47.128Z,21.53
2017-12-04T18:06:15.695Z,23.97
2017-12-04T18:08:48.034Z,25.43
2017-12-04T18:13:50.587Z,27.10
2017-12-04T18:18:58.410Z,38.53
2017-12-04T18:21:26.088Z,31.13
2017-12-04T18:26:32.852Z,34.65
2017-12-04T18:29:00.473Z,30.33
2017-12-04T18:31:28.104Z,26.17
2017-12-04T18:33:55.839Z,23.30
2017-12-04T18:36:23.465Z,25.40
2017-12-04T18:38:51.086Z,22.93
2017-12-04T18:43:59.524Z,31.58
2017-12-04T18:46:28.533Z,24.97
2017-12-04T18:48:56.785Z,25.43
2017-12-04T18:51:24.339Z,25.40
2017-12-04T18:53:52.033Z,24.90
2017-12-04T18:56:19.662Z,24.33
2017-12-04T18:58:47.284Z,25.43
2017-12-04T19:01:15.031Z,27.03
2017-12-04T19:03:42.622Z,24.20
2017-12-04T19:08:49.461Z,32.78
2017-12-04T19:11:17.114Z,27.33
2017-12-04T19:13:44.726Z,27.50
2017-12-04T19:16:12.608Z,31.33
2017-12-04T19:21:19.044Z,41.72
2017-12-04T19:23:46.687Z,30.03
2017-12-04T19:26:14.457Z,29.07
2017-12-04T19:31:24.956Z,35.13
2017-12-04T19:33:52.645Z,31.33
2017-12-04T19:36:20.264Z,31.33
2017-12-04T19:38:47.888Z,29.53
2017-12-04T19:41:15.595Z,28.07
2017-12-04T19:43:43.260Z,37.03
2017-12-04T19:46:10.924Z,29.60
2017-12-04T19:48:38.665Z,30.30
2017-12-04T19:51:06.302Z,31.07
2017-12-04T19:53:33.918Z,32.33
2017-12-04T19:56:01.628Z,34.97
2017-12-04T19:58:29.287Z,31.17
2017-12-04T20:03:36.577Z,47.05
2017-12-04T20:06:08.120Z,33.37
2017-12-04T20:08:40.363Z,30.70
2017-12-04T20:11:08.260Z,34.27
2017-12-04T20:13:36.375Z,34.87
2017-12-04T20:16:06.560Z,34.87
2017-12-04T20:18:32.332Z,37.67
2017-12-04T20:20:59.970Z,36.90
2017-12-04T20:23:32.084Z,35.90
2017-12-04T20:25:59.753Z,41.97
2017-12-04T20:28:27.383Z,37.23
2017-12-04T20:30:56.788Z,30.87
2017-12-04T20:33:24.400Z,31.87
2017-12-04T20:35:52.042Z,30.17
2017-12-04T20:38:19.747Z,32.00
2017-12-04T20:40:47.362Z,33.17
2017-12-04T20:43:15.012Z,33.63
2017-12-04T20:45:42.778Z,32.90
2017-12-04T20:50:49.298Z,46.75
2017-12-04T20:53:16.863Z,34.93
2017-12-04T20:55:45.789Z,32.47
2017-12-04T20:58:14.238Z,29.27
2017-12-04T21:00:41.825Z,31.90
2017-12-04T21:03:09.459Z,32.17
2017-12-04T21:05:37.416Z,29.10
2017-12-04T21:08:16.823Z,27.50
2017-12-04T21:10:56.383Z,31.70
2017-12-04T21:13:35.739Z,33.93
2017-12-04T21:18:51.880Z,50.35
2017-12-04T21:21:19.592Z,42.10
2017-12-04T21:23:47.219Z,37.47
2017-12-04T21:26:14.852Z,38.80
2017-12-04T21:28:42.545Z,37.23
2017-12-04T21:31:10.225Z,35.53
2017-12-04T21:33:37.852Z,32.17
2017-12-04T21:36:05.541Z,37.43
2017-12-04T21:38:33.190Z,35.23
2017-12-04T21:41:00.824Z,36.77
2017-12-04T21:43:29.225Z,36.87
2017-12-04T21:45:56.900Z,33.50
2017-12-04T21:48:24.556Z,31.57
2017-12-04T21:50:52.484Z,27.03
2017-12-04T21:53:19.953Z,25.43
2017-12-04T21:55:47.595Z,30.00
2017-12-04T21:58:15.303Z,26.23
2017-12-04T22:00:43.038Z,25.53
2017-12-04T22:05:49.506Z,37.50
2017-12-04T22:08:17.156Z,30.37
2017-12-04T22:10:44.797Z,25.27
2017-12-04T22:13:13.083Z,25.63
2017-12-04T22:15:40.879Z,28.70
2017-12-04T22:18:08.451Z,24.90
2017-12-04T22:20:36.158Z,24.80
2017-12-04T22:23:05.060Z,24.17
2017-12-04T22:25:32.732Z,23.27
2017-12-04T22:28:00.900Z,22.33
2017-12-04T22:30:29.121Z,23.70
2017-12-04T22:32:56.820Z,23.80
2017-12-04T22:35:24.963Z,25.37
2017-12-04T22:37:52.594Z,25.53
2017-12-04T22:40:20.224Z,26.73
2017-12-04T22:42:47.928Z,26.57
2017-12-04T22:45:15.578Z,26.00
2017-12-04T22:47:43.394Z,29.03
2017-12-04T22:50:11.170Z,28.57
2017-12-04T22:52:38.918Z,27.50
2017-12-04T22:55:06.562Z,26.07
2017-12-04T22:57:35.196Z,24.87
2017-12-04T23:00:03.007Z,23.87
2017-12-04T23:02:30.605Z,23.57
2017-12-04T23:04:58.378Z,22.73
2017-12-04T23:07:26.038Z,23.60
2017-12-04T23:12:35.243Z,38.72
2017-12-04T23:15:02.909Z,31.10
2017-12-04T23:17:30.541Z,29.00
2017-12-04T23:19:59.537Z,32.47
2017-12-04T23:25:05.143Z,28.93
2017-12-04T23:27:33.102Z,29.60
2017-12-04T23:30:00.745Z,28.30
2017-12-04T23:32:28.445Z,29.07
2017-12-04T23:34:56.080Z,34.27
2017-12-04T23:37:23.774Z,30.47
2017-12-04T23:42:31.557Z,34.58
2017-12-04T23:44:59.259Z,25.43
2017-12-04T23:47:26.958Z,22.93
2017-12-04T23:49:54.585Z,22.13
2017-12-04T23:52:22.310Z,21.33
2017-12-04T23:57:29.567Z,31.48
2017-12-04T23:59:57.191Z,21.93
